Novomar — 5BCT2 — position and weather

sailwx.info

Track history (hours):
 
Tides and Currents Weather Stations Pressure Air Temp Water Temp Dewpoint Dewpoint Depression Visibility Wind Speed Wind Dir Waves Ship Positions

Novomar

Last reported at 2016-Aug-26 17:33 UTC. Time now 2016-Aug-28 16:38 UTC.
Position N 58°44' E 017°51'.

Length 89 m; draft 4.3 m.

Type: Ship. MMSI: 210974000.

Date/timePositionNaut miles runAvg speedWind from/ knotsBaromVisibWave heightAir tempDewpointWater temp
2016-Aug-26 17:33N 58°44' E 017°51'136 2.6
2016-Aug-24 13:33N 56°30' E 017°06'81 8.9
2016-Aug-24 04:27N 55°36' E 015°18'9 9.5
2016-Aug-24 03:33N 55°32' E 015°05'9 9.4
2016-Aug-24 02:33N 55°27' E 014°50'9 9.2
2016-Aug-24 01:33N 55°22' E 014°37'9 9.4
2016-Aug-24 00:33N 55°15' E 014°26'9 9.3
2016-Aug-23 23:33N 55°08' E 014°16'9 9.0
2016-Aug-23 22:33N 55°01' E 014°05'10 9.8
2016-Aug-23 21:33N 54°58' E 013°49'10 9.7
2016-Aug-23 20:33N 54°55' E 013°33'22 9.8
2016-Aug-23 18:16N 54°48' E 012°56'710.1
2016-Aug-23 17:34N 54°45' E 012°44'10 9.8
2016-Aug-23 16:33N 54°40' E 012°30'11 9.4
2016-Aug-23 15:25N 54°32' E 012°17'8 9.2
2016-Aug-23 14:33N 54°25' E 012°11'10 9.7
2016-Aug-23 13:33N 54°25' E 011°54'9 9.4
2016-Aug-23 12:33N 54°27' E 011°38'10 9.6
2016-Aug-23 11:34N 54°31' E 011°23'9 9.4
2016-Aug-23 10:33N 54°35' E 011°09'9 9.2
2016-Aug-23 09:34N 54°34' E 010°53'10 9.6
2016-Aug-23 08:33N 54°33' E 010°36'10 9.9
2016-Aug-23 07:34N 54°30' E 010°20'9 9.0
2016-Aug-23 06:34N 54°22' E 010°11'2 2.0
2016-Aug-23 05:34N 54°22' E 010°08'5 5.3
2016-Aug-23 04:34N 54°21' E 009°59'8 6.0
2016-Aug-23 03:19N 54°21' E 009°46'23 7.2
2016-Aug-23 00:07N 54°04' E 009°19'5 8.3
2016-Aug-22 23:33N 53°60' E 009°17'6 6.4
2016-Aug-22 22:34N 53°55' E 009°11'0 0.0
2016-Aug-22 21:33N 53°55' E 009°11'0 0.0
2016-Aug-22 20:33N 53°55' E 009°11'2 2.3
2016-Aug-22 19:34N 53°53' E 009°08'7 7.1
2016-Aug-22 18:33N 53°51' E 008°57'8 7.9
2016-Aug-22 17:33N 53°52' E 008°43'8 8.3
2016-Aug-22 16:34N 53°58' E 008°33'9 9.4
2016-Aug-22 15:33N 53°60' E 008°17'12 9.8
2016-Aug-22 14:18N 53°58' E 007°57'1111.0
2016-Aug-22 13:20N 53°56' E 007°39'911.2
2016-Aug-22 12:34N 53°54' E 007°25'1110.8
2016-Aug-22 11:33N 53°51' E 007°07'1211.9
2016-Aug-22 10:34N 53°48' E 006°48'1212.1
2016-Aug-22 09:33N 53°45' E 006°28'1211.8
2016-Aug-22 08:33N 53°42' E 006°08'1111.5
2016-Aug-22 07:33N 53°38' E 005°50'1111.2
2016-Aug-22 06:34N 53°35' E 005°32'1110.6
2016-Aug-22 05:34N 53°31' E 005°15'57 9.1
2016-Aug-21 23:16N 52°48' E 004°12'9 9.4
2016-Aug-21 22:16N 52°41' E 004°02'7511.2
2016-Aug-21 15:33N 51°46' E 002°38'1212.6
2016-Aug-21 14:34N 51°37' E 002°25'1311.9
2016-Aug-21 13:26N 51°26' E 002°11'1210.4
2016-Aug-21 12:17N 51°15' E 002°05'710.0
2016-Aug-21 11:33N 51°11' E 001°55'9 8.6
2016-Aug-21 10:33N 51°05' E 001°45'9 7.0
2016-Aug-21 09:14N 50°59' E 001°34'5 7.3
2016-Aug-21 08:34N 50°55' E 001°29'95 8.4
2016-Aug-20 21:18N 50°38' W 000°58'6 7.6
2016-Aug-20 20:34N 50°43' W 001°00'1211.6
2016-Aug-20 19:34N 50°48' W 001°17'5 0.2
2016-Aug-19 13:33N 50°52' W 001°22'1010.1
2016-Aug-19 12:33N 50°46' W 001°09'5 4.5
2016-Aug-19 11:30N 50°43' W 001°04'0 0.0
2016-Aug-19 10:33N 50°43' W 001°04'0 0.0
2016-Aug-19 09:33N 50°43' W 001°04'0 0.0
2016-Aug-19 08:33N 50°43' W 001°04'0 0.1
2016-Aug-19 07:32N 50°43' W 001°04'5 5.2
2016-Aug-19 06:33N 50°39' W 000°59'17811.0
2016-Aug-18 14:24N 48°54' W 004°43'1012.1
2016-Aug-18 13:33N 48°48' W 004°55'1111.0
2016-Aug-18 12:33N 48°41' W 005°09'1110.3
2016-Aug-18 11:31N 48°34' W 005°20'7 7.1
2016-Aug-18 10:33N 48°27' W 005°20'8 8.0
2016-Aug-18 09:33N 48°22' W 005°10'8 8.1
2016-Aug-18 08:33N 48°17' W 005°00'9 9.2
2016-Aug-18 07:34N 48°17' W 004°47'9 9.4
2016-Aug-18 06:33N 48°21' W 004°34'4 4.1
2016-Aug-18 05:32N 48°23' W 004°28'0 0.0
2016-Aug-18 04:32N 48°23' W 004°28'0 0.0
2016-Aug-18 03:32N 48°23' W 004°28'0 0.0
2016-Aug-18 02:32N 48°23' W 004°28'0 0.0
2016-Aug-18 01:32N 48°23' W 004°28'0 0.0
2016-Aug-18 00:32N 48°23' W 004°28'0 0.0
2016-Aug-17 23:32N 48°23' W 004°28'0 0.0
2016-Aug-17 22:32N 48°23' W 004°28'0 0.0
2016-Aug-17 21:32N 48°23' W 004°28'0 0.0
2016-Aug-17 20:32N 48°23' W 004°28'0 0.0
2016-Aug-17 19:32N 48°23' W 004°28'0 0.0
2016-Aug-17 18:32N 48°23' W 004°28'0 0.0
2016-Aug-17 17:32N 48°23' W 004°28'0 0.0
2016-Aug-17 16:32N 48°23' W 004°28'0 0.0
2016-Aug-17 15:32N 48°23' W 004°28'0 0.0
2016-Aug-17 14:32N 48°23' W 004°28'0 0.0
2016-Aug-17 13:32N 48°23' W 004°28'0 0.0
2016-Aug-17 12:32N 48°23' W 004°28'0 0.0
2016-Aug-17 11:32N 48°23' W 004°28'0 0.0
2016-Aug-17 10:32N 48°23' W 004°28'0 0.0
2016-Aug-17 09:32N 48°23' W 004°28'0 0.0
2016-Aug-17 08:32N 48°23' W 004°28'0 0.0
2016-Aug-17 07:32N 48°23' W 004°28'0 0.0
2016-Aug-17 06:32N 48°23' W 004°28'0 0.0
2016-Aug-17 05:32N 48°23' W 004°28'0 0.0
2016-Aug-17 04:29N 48°23' W 004°28'0 0.0
2016-Aug-17 03:32N 48°23' W 004°28'0 0.0
2016-Aug-17 02:32N 48°23' W 004°28'0 0.0
2016-Aug-17 01:32N 48°23' W 004°28'0 0.0
2016-Aug-17 00:32N 48°23' W 004°28'0 0.0
2016-Aug-16 23:32N 48°23' W 004°28'0 0.0
2016-Aug-16 22:32N 48°23' W 004°28'0 0.0
2016-Aug-16 21:32N 48°23' W 004°28'0 0.0
2016-Aug-16 20:32N 48°23' W 004°28'0 0.0
2016-Aug-16 19:32N 48°23' W 004°28'0 0.0
2016-Aug-16 18:32N 48°23' W 004°28'  
Track history (hours):
 
Tides and Currents Weather Stations Pressure Air Temp Water Temp Dewpoint Dewpoint Depression Visibility Wind Speed Wind Dir Waves Ship Positions

Novomar

Last reported at 2016-Aug-26 17:33 UTC. Time now 2016-Aug-28 16:38 UTC.
Position N 58°44' E 017°51'.

Length 89 m; draft 4.3 m.

Type: Ship. MMSI: 210974000.

Date/timePositionNaut miles runAvg speedWind from/ knotsBaromVisibWave heightAir tempDewpointWater temp
2016-Aug-26 17:33N 58°44' E 017°51'136 2.6
2016-Aug-24 13:33N 56°30' E 017°06'81 8.9
2016-Aug-24 04:27N 55°36' E 015°18'9 9.5
2016-Aug-24 03:33N 55°32' E 015°05'9 9.4
2016-Aug-24 02:33N 55°27' E 014°50'9 9.2
2016-Aug-24 01:33N 55°22' E 014°37'9 9.4
2016-Aug-24 00:33N 55°15' E 014°26'9 9.3
2016-Aug-23 23:33N 55°08' E 014°16'9 9.0
2016-Aug-23 22:33N 55°01' E 014°05'10 9.8
2016-Aug-23 21:33N 54°58' E 013°49'10 9.7
2016-Aug-23 20:33N 54°55' E 013°33'22 9.8
2016-Aug-23 18:16N 54°48' E 012°56'710.1
2016-Aug-23 17:34N 54°45' E 012°44'10 9.8
2016-Aug-23 16:33N 54°40' E 012°30'11 9.4
2016-Aug-23 15:25N 54°32' E 012°17'8 9.2
2016-Aug-23 14:33N 54°25' E 012°11'10 9.7
2016-Aug-23 13:33N 54°25' E 011°54'9 9.4
2016-Aug-23 12:33N 54°27' E 011°38'10 9.6
2016-Aug-23 11:34N 54°31' E 011°23'9 9.4
2016-Aug-23 10:33N 54°35' E 011°09'9 9.2
2016-Aug-23 09:34N 54°34' E 010°53'10 9.6
2016-Aug-23 08:33N 54°33' E 010°36'10 9.9
2016-Aug-23 07:34N 54°30' E 010°20'9 9.0
2016-Aug-23 06:34N 54°22' E 010°11'2 2.0
2016-Aug-23 05:34N 54°22' E 010°08'5 5.3
2016-Aug-23 04:34N 54°21' E 009°59'8 6.0
2016-Aug-23 03:19N 54°21' E 009°46'23 7.2
2016-Aug-23 00:07N 54°04' E 009°19'5 8.3
2016-Aug-22 23:33N 53°60' E 009°17'6 6.4
2016-Aug-22 22:34N 53°55' E 009°11'0 0.0
2016-Aug-22 21:33N 53°55' E 009°11'0 0.0
2016-Aug-22 20:33N 53°55' E 009°11'2 2.3
2016-Aug-22 19:34N 53°53' E 009°08'7 7.1
2016-Aug-22 18:33N 53°51' E 008°57'8 7.9
2016-Aug-22 17:33N 53°52' E 008°43'8 8.3
2016-Aug-22 16:34N 53°58' E 008°33'9 9.4
2016-Aug-22 15:33N 53°60' E 008°17'12 9.8
2016-Aug-22 14:18N 53°58' E 007°57'1111.0
2016-Aug-22 13:20N 53°56' E 007°39'911.2
2016-Aug-22 12:34N 53°54' E 007°25'1110.8
2016-Aug-22 11:33N 53°51' E 007°07'1211.9
2016-Aug-22 10:34N 53°48' E 006°48'1212.1
2016-Aug-22 09:33N 53°45' E 006°28'1211.8
2016-Aug-22 08:33N 53°42' E 006°08'1111.5
2016-Aug-22 07:33N 53°38' E 005°50'1111.2
2016-Aug-22 06:34N 53°35' E 005°32'1110.6
2016-Aug-22 05:34N 53°31' E 005°15'57 9.1
2016-Aug-21 23:16N 52°48' E 004°12'9 9.4
2016-Aug-21 22:16N 52°41' E 004°02'7511.2
2016-Aug-21 15:33N 51°46' E 002°38'1212.6
2016-Aug-21 14:34N 51°37' E 002°25'1311.9
2016-Aug-21 13:26N 51°26' E 002°11'1210.4
2016-Aug-21 12:17N 51°15' E 002°05'710.0
2016-Aug-21 11:33N 51°11' E 001°55'9 8.6
2016-Aug-21 10:33N 51°05' E 001°45'9 7.0
2016-Aug-21 09:14N 50°59' E 001°34'5 7.3
2016-Aug-21 08:34N 50°55' E 001°29'95 8.4
2016-Aug-20 21:18N 50°38' W 000°58'6 7.6
2016-Aug-20 20:34N 50°43' W 001°00'1211.6
2016-Aug-20 19:34N 50°48' W 001°17'5 0.2
2016-Aug-19 13:33N 50°52' W 001°22'1010.1
2016-Aug-19 12:33N 50°46' W 001°09'5 4.5
2016-Aug-19 11:30N 50°43' W 001°04'0 0.0
2016-Aug-19 10:33N 50°43' W 001°04'0 0.0
2016-Aug-19 09:33N 50°43' W 001°04'0 0.0
2016-Aug-19 08:33N 50°43' W 001°04'0 0.1
2016-Aug-19 07:32N 50°43' W 001°04'5 5.2
2016-Aug-19 06:33N 50°39' W 000°59'17811.0
2016-Aug-18 14:24N 48°54' W 004°43'1012.1
2016-Aug-18 13:33N 48°48' W 004°55'1111.0
2016-Aug-18 12:33N 48°41' W 005°09'1110.3
2016-Aug-18 11:31N 48°34' W 005°20'7 7.1
2016-Aug-18 10:33N 48°27' W 005°20'8 8.0
2016-Aug-18 09:33N 48°22' W 005°10'8 8.1
2016-Aug-18 08:33N 48°17' W 005°00'9 9.2
2016-Aug-18 07:34N 48°17' W 004°47'9 9.4
2016-Aug-18 06:33N 48°21' W 004°34'4 4.1
2016-Aug-18 05:32N 48°23' W 004°28'0 0.0
2016-Aug-18 04:32N 48°23' W 004°28'0 0.0
2016-Aug-18 03:32N 48°23' W 004°28'0 0.0
2016-Aug-18 02:32N 48°23' W 004°28'0 0.0
2016-Aug-18 01:32N 48°23' W 004°28'0 0.0
2016-Aug-18 00:32N 48°23' W 004°28'0 0.0
2016-Aug-17 23:32N 48°23' W 004°28'0 0.0
2016-Aug-17 22:32N 48°23' W 004°28'0 0.0
2016-Aug-17 21:32N 48°23' W 004°28'0 0.0
2016-Aug-17 20:32N 48°23' W 004°28'0 0.0
2016-Aug-17 19:32N 48°23' W 004°28'0 0.0
2016-Aug-17 18:32N 48°23' W 004°28'0 0.0
2016-Aug-17 17:32N 48°23' W 004°28'0 0.0
2016-Aug-17 16:32N 48°23' W 004°28'0 0.0
2016-Aug-17 15:32N 48°23' W 004°28'0 0.0
2016-Aug-17 14:32N 48°23' W 004°28'0 0.0
2016-Aug-17 13:32N 48°23' W 004°28'0 0.0
2016-Aug-17 12:32N 48°23' W 004°28'0 0.0
2016-Aug-17 11:32N 48°23' W 004°28'0 0.0
2016-Aug-17 10:32N 48°23' W 004°28'0 0.0
2016-Aug-17 09:32N 48°23' W 004°28'0 0.0
2016-Aug-17 08:32N 48°23' W 004°28'0 0.0
2016-Aug-17 07:32N 48°23' W 004°28'0 0.0
2016-Aug-17 06:32N 48°23' W 004°28'0 0.0
2016-Aug-17 05:32N 48°23' W 004°28'0 0.0
2016-Aug-17 04:29N 48°23' W 004°28'0 0.0
2016-Aug-17 03:32N 48°23' W 004°28'0 0.0
2016-Aug-17 02:32N 48°23' W 004°28'0 0.0
2016-Aug-17 01:32N 48°23' W 004°28'0 0.0
2016-Aug-17 00:32N 48°23' W 004°28'0 0.0
2016-Aug-16 23:32N 48°23' W 004°28'0 0.0
2016-Aug-16 22:32N 48°23' W 004°28'0 0.0
2016-Aug-16 21:32N 48°23' W 004°28'0 0.0
2016-Aug-16 20:32N 48°23' W 004°28'0 0.0
2016-Aug-16 19:32N 48°23' W 004°28'0 0.0
2016-Aug-16 18:32N 48°23' W 004°28'  

Dump ship's entire track history